createdAt,value
2023-02-09T00:02:35.143Z,9.55
2023-02-09T00:05:41.589Z,9.35
2023-02-09T00:08:44.386Z,7.97
2023-02-09T00:12:04.875Z,10.38
2023-02-09T00:15:09.553Z,9.30
2023-02-09T00:18:12.288Z,10.35
2023-02-09T00:21:14.983Z,9.93
2023-02-09T00:24:18.169Z,9.18
2023-02-09T00:27:20.875Z,8.75
2023-02-09T00:30:25.164Z,10.02
2023-02-09T00:33:27.990Z,8.80
2023-02-09T00:36:30.797Z,8.25
2023-02-09T00:39:33.438Z,8.77
2023-02-09T00:42:36.255Z,8.65
2023-02-09T00:45:40.286Z,8.07
2023-02-09T00:48:42.899Z,8.70
2023-02-09T00:51:45.518Z,8.95
2023-02-09T00:54:48.315Z,9.13
2023-02-09T00:57:50.970Z,9.23
2023-02-09T01:00:55.016Z,7.93
2023-02-09T01:03:58.024Z,9.02
2023-02-09T01:07:00.868Z,8.40
2023-02-09T01:10:04.027Z,9.65
2023-02-09T01:13:06.921Z,10.02
2023-02-09T01:16:12.165Z,9.18
2023-02-09T01:19:15.131Z,9.73
2023-02-09T01:22:18.042Z,9.10
2023-02-09T01:25:21.162Z,9.35
2023-02-09T01:28:23.783Z,8.80
2023-02-09T01:31:29.892Z,9.23
2023-02-09T01:34:32.663Z,8.85
2023-02-09T01:37:36.554Z,9.77
2023-02-09T01:43:53.792Z,10.25
2023-02-09T01:46:57.985Z,8.30
2023-02-09T01:50:00.653Z,9.25
2023-02-09T01:53:03.946Z,9.77
2023-02-09T01:56:09.396Z,10.27
2023-02-09T01:59:12.359Z,10.02
2023-02-09T02:02:16.300Z,9.63
2023-02-09T02:05:19.737Z,9.30
2023-02-09T02:08:26.269Z,8.73
2023-02-09T02:11:29.834Z,8.63
2023-02-09T02:14:35.334Z,9.23
2023-02-09T02:17:49.629Z,9.95
2023-02-09T02:21:17.346Z,9.00
2023-02-09T02:24:52.150Z,9.70
2023-02-09T02:28:04.303Z,9.10
2023-02-09T02:31:59.139Z,10.20
2023-02-09T02:35:04.588Z,9.73
2023-02-09T02:38:16.315Z,10.50
2023-02-09T02:41:22.771Z,10.13
2023-02-09T02:44:28.980Z,8.50
2023-02-09T02:47:36.005Z,9.23
2023-02-09T02:50:41.197Z,10.63
2023-02-09T02:53:48.803Z,10.45
2023-02-09T02:56:54.497Z,11.43
2023-02-09T03:00:01.298Z,10.50
2023-02-09T03:03:09.072Z,10.57
2023-02-09T03:06:12.307Z,9.85
2023-02-09T03:09:14.935Z,10.55
2023-02-09T03:12:27.146Z,10.15
2023-02-09T03:15:33.245Z,11.07
2023-02-09T03:18:45.830Z,9.70
2023-02-09T03:21:51.926Z,11.02
2023-02-09T03:24:56.644Z,9.77
2023-02-09T03:28:04.894Z,11.98
2023-02-09T03:31:08.232Z,11.73
2023-02-09T03:34:12.462Z,12.02
2023-02-09T03:37:15.423Z,11.85
2023-02-09T03:40:19.359Z,13.32
2023-02-09T03:43:42.331Z,11.55
2023-02-09T03:46:45.152Z,12.20
2023-02-09T03:49:49.190Z,11.00
2023-02-09T03:52:51.820Z,11.98
2023-02-09T03:55:54.559Z,11.93
2023-02-09T03:58:57.267Z,12.20
2023-02-09T04:01:59.921Z,11.85
2023-02-09T04:05:05.795Z,11.73
2023-02-09T04:08:08.883Z,11.07
2023-02-09T04:11:11.530Z,12.43
2023-02-09T04:14:14.836Z,11.57
2023-02-09T04:17:17.459Z,13.15
2023-02-09T04:20:21.498Z,12.13
2023-02-09T04:23:24.127Z,12.85
2023-02-09T04:26:26.775Z,11.82
2023-02-09T04:29:29.555Z,13.23
2023-02-09T04:32:32.231Z,12.55
2023-02-09T04:35:36.200Z,13.55
2023-02-09T04:38:38.858Z,12.88
2023-02-09T04:41:41.836Z,13.82
2023-02-09T04:44:44.616Z,13.30
2023-02-09T04:47:47.258Z,12.82
2023-02-09T04:50:51.944Z,13.50
2023-02-09T04:53:54.612Z,14.10
2023-02-09T04:57:11.337Z,14.07
2023-02-09T05:00:15.128Z,14.60
2023-02-09T05:06:22.258Z,14.90
2023-02-09T05:09:25.166Z,15.48
2023-02-09T05:12:27.871Z,14.70
2023-02-09T05:15:30.848Z,14.30
2023-02-09T05:18:33.490Z,15.35
2023-02-09T05:21:37.571Z,16.20
2023-02-09T05:24:40.255Z,14.15
2023-02-09T05:27:42.958Z,14.60
2023-02-09T05:30:46.131Z,13.73
2023-02-09T05:33:48.851Z,16.38
2023-02-09T05:36:53.201Z,12.48
2023-02-09T05:39:55.798Z,14.88
2023-02-09T05:42:59.766Z,14.23
2023-02-09T05:46:02.651Z,14.52
2023-02-09T05:49:05.353Z,14.93
2023-02-09T05:52:09.731Z,16.05
2023-02-09T05:55:12.338Z,14.60
2023-02-09T05:58:15.050Z,14.77
2023-02-09T06:01:17.814Z,15.73
2023-02-09T06:04:20.572Z,14.50
2023-02-09T06:07:24.578Z,15.55
2023-02-09T06:10:27.378Z,14.65
2023-02-09T06:13:30.365Z,16.23
2023-02-09T06:16:33.240Z,15.60
2023-02-09T06:19:35.934Z,15.05
2023-02-09T06:22:39.996Z,14.95
2023-02-09T06:25:42.855Z,13.50
2023-02-09T06:28:46.054Z,16.90
2023-02-09T06:31:51.426Z,14.57
2023-02-09T06:34:54.111Z,16.70
2023-02-09T06:37:59.166Z,14.98
2023-02-09T06:41:02.268Z,15.48
2023-02-09T06:44:05.526Z,14.75
2023-02-09T06:47:08.159Z,13.32
2023-02-09T06:50:11.720Z,14.70
2023-02-09T06:53:17.157Z,15.60
2023-02-09T06:56:20.160Z,15.52
2023-02-09T06:59:22.817Z,15.13
2023-02-09T07:02:25.493Z,15.60
2023-02-09T07:05:28.404Z,16.38
2023-02-09T07:08:32.611Z,22.45
2023-02-09T07:11:35.431Z,21.67
2023-02-09T07:14:37.993Z,20.55
2023-02-09T07:17:40.832Z,18.92
2023-02-09T07:20:43.642Z,18.52
2023-02-09T07:23:48.439Z,17.27
2023-02-09T07:26:51.116Z,17.58
2023-02-09T07:29:53.756Z,20.17
2023-02-09T07:32:56.556Z,22.38
2023-02-09T07:35:59.299Z,23.95
2023-02-09T07:39:03.380Z,21.38
2023-02-09T07:42:06.128Z,21.05
2023-02-09T07:45:10.170Z,18.95
2023-02-09T07:48:13.364Z,19.88
2023-02-09T07:51:16.748Z,17.60
2023-02-09T07:54:21.383Z,18.45
2023-02-09T07:57:24.145Z,15.75
2023-02-09T08:00:26.834Z,17.40
2023-02-09T08:03:30.074Z,17.73
2023-02-09T08:06:41.860Z,17.65
2023-02-09T08:09:47.119Z,16.70
2023-02-09T08:13:02.532Z,16.60
2023-02-09T08:16:07.369Z,17.58
2023-02-09T08:19:13.301Z,16.52
2023-02-09T08:22:16.083Z,15.32
2023-02-09T08:25:21.762Z,14.82
2023-02-09T08:28:38.290Z,16.45
2023-02-09T08:31:45.711Z,15.30
2023-02-09T08:34:48.360Z,13.60
2023-02-09T08:37:51.032Z,16.40
2023-02-09T08:40:55.024Z,15.50
2023-02-09T08:43:57.614Z,16.55
2023-02-09T08:47:00.378Z,15.07
2023-02-09T08:50:03.039Z,15.98
2023-02-09T08:53:06.048Z,15.80
2023-02-09T08:56:10.089Z,14.90
2023-02-09T08:59:12.993Z,15.98
2023-02-09T09:02:15.739Z,15.45
2023-02-09T09:05:18.760Z,14.75
2023-02-09T09:08:21.349Z,16.70
2023-02-09T09:11:25.634Z,14.60
2023-02-09T09:14:28.211Z,16.33
2023-02-09T09:17:31.108Z,15.50
2023-02-09T09:20:33.769Z,15.10
2023-02-09T09:23:36.443Z,15.17
2023-02-09T09:26:40.390Z,14.90
2023-02-09T09:32:45.702Z,15.00
2023-02-09T09:35:48.471Z,16.07
2023-02-09T09:38:51.165Z,15.00
2023-02-09T09:41:59.374Z,16.00
2023-02-09T09:45:02.773Z,16.77
2023-02-09T09:48:07.319Z,16.15
2023-02-09T09:51:13.992Z,16.07
2023-02-09T09:54:20.381Z,16.37
2023-02-09T09:57:26.608Z,16.53
2023-02-09T10:00:33.655Z,16.40
2023-02-09T10:03:36.567Z,15.83
2023-02-09T10:06:41.884Z,16.02
2023-02-09T10:09:48.081Z,17.80
2023-02-09T10:12:53.019Z,15.83
2023-02-09T10:15:57.218Z,16.33
2023-02-09T10:19:01.161Z,16.47
2023-02-09T10:22:04.045Z,16.50
2023-02-09T10:25:38.272Z,15.30
2023-02-09T10:28:43.976Z,15.00
2023-02-09T10:31:50.533Z,16.37
2023-02-09T10:34:56.775Z,15.30
2023-02-09T10:38:00.792Z,16.00
2023-02-09T10:41:03.437Z,17.83
2023-02-09T10:44:13.925Z,17.10
2023-02-09T10:47:28.088Z,14.87
2023-02-09T10:53:35.077Z,15.90
2023-02-09T10:56:47.653Z,17.60
2023-02-09T10:59:56.483Z,16.70
2023-02-09T11:03:02.598Z,17.40
2023-02-09T11:06:14.943Z,15.77
2023-02-09T11:09:19.260Z,17.37
2023-02-09T11:12:23.038Z,15.87
2023-02-09T11:15:28.979Z,17.57
2023-02-09T11:18:34.578Z,15.90
2023-02-09T11:21:45.800Z,15.93
2023-02-09T11:24:55.876Z,15.33
2023-02-09T11:28:19.974Z,15.53
2023-02-09T11:31:47.169Z,15.43
2023-02-09T11:35:09.927Z,14.43
2023-02-09T11:38:16.881Z,14.70
2023-02-09T11:41:52.759Z,15.03
2023-02-09T11:44:59.177Z,14.20
2023-02-09T11:48:07.205Z,14.70
2023-02-09T11:51:12.450Z,15.23
2023-02-09T11:54:17.717Z,14.50
2023-02-09T11:57:25.135Z,13.63
2023-02-09T12:00:31.594Z,14.30
2023-02-09T12:03:35.683Z,14.90
2023-02-09T12:06:40.051Z,14.03
2023-02-09T12:09:49.497Z,15.87
2023-02-09T12:12:56.077Z,14.63
2023-02-09T12:16:01.055Z,15.70
2023-02-09T12:19:06.604Z,14.37
2023-02-09T12:22:50.322Z,15.57
2023-02-09T12:25:59.612Z,14.73
2023-02-09T12:29:22.778Z,14.67
2023-02-09T12:32:43.242Z,15.93
2023-02-09T12:36:00.498Z,15.40
2023-02-09T12:39:24.161Z,16.33
2023-02-09T12:42:28.935Z,14.13
2023-02-09T12:45:34.969Z,15.30
2023-02-09T12:48:48.212Z,14.57
2023-02-09T12:52:14.129Z,14.43
2023-02-09T12:55:19.140Z,13.93
2023-02-09T12:58:39.052Z,13.60
2023-02-09T13:02:05.159Z,13.93
2023-02-09T13:05:10.188Z,14.97
2023-02-09T13:08:39.294Z,13.37
2023-02-09T13:11:49.274Z,14.43
2023-02-09T13:14:52.292Z,14.37
2023-02-09T13:18:06.244Z,14.15
2023-02-09T13:21:16.552Z,15.23
2023-02-09T13:24:23.352Z,13.77
2023-02-09T13:27:29.083Z,12.70
2023-02-09T13:30:33.366Z,14.47
2023-02-09T13:33:42.099Z,13.40
2023-02-09T13:36:47.422Z,13.80
2023-02-09T13:39:58.071Z,14.23
2023-02-09T13:43:05.373Z,13.33
2023-02-09T13:46:08.078Z,14.13
2023-02-09T13:49:12.297Z,14.40
2023-02-09T13:52:16.451Z,14.93
2023-02-09T13:55:21.580Z,14.67
2023-02-09T13:58:26.015Z,14.83
2023-02-09T14:01:31.573Z,16.50
2023-02-09T14:04:35.124Z,15.60
2023-02-09T14:07:38.973Z,15.93
2023-02-09T14:10:44.875Z,16.17
2023-02-09T14:13:50.357Z,15.27
2023-02-09T14:17:23.779Z,15.33
2023-02-09T14:23:33.036Z,15.77
2023-02-09T14:26:42.661Z,14.77
2023-02-09T14:29:47.254Z,14.53
2023-02-09T14:32:53.473Z,14.27
2023-02-09T14:35:59.242Z,15.63
2023-02-09T14:39:10.575Z,16.00
2023-02-09T14:42:18.980Z,15.33
2023-02-09T14:45:30.891Z,15.67
2023-02-09T14:48:33.522Z,15.73
2023-02-09T14:51:36.052Z,15.83
2023-02-09T14:54:48.532Z,15.57
2023-02-09T14:57:52.713Z,16.13
2023-02-09T15:00:56.762Z,15.57
2023-02-09T15:03:59.393Z,14.87
2023-02-09T15:07:03.673Z,15.93
2023-02-09T15:10:08.438Z,15.90
2023-02-09T15:13:13.603Z,16.23
2023-02-09T15:16:16.965Z,16.50
2023-02-09T15:19:22.243Z,16.58
2023-02-09T15:22:25.480Z,15.47
2023-02-09T15:25:28.602Z,16.05
2023-02-09T15:28:34.397Z,15.85
2023-02-09T15:31:37.371Z,15.10
2023-02-09T15:34:40.074Z,15.75
2023-02-09T15:37:44.315Z,16.23
2023-02-09T15:41:06.490Z,15.10
2023-02-09T15:44:34.909Z,16.43
2023-02-09T15:47:49.739Z,15.87
2023-02-09T15:50:52.518Z,14.40
2023-02-09T15:53:56.218Z,16.43
2023-02-09T15:56:59.361Z,16.60
2023-02-09T16:00:03.803Z,16.17
2023-02-09T16:03:13.498Z,15.50
2023-02-09T16:06:18.450Z,14.03
2023-02-09T16:09:23.361Z,12.70
2023-02-09T16:12:26.296Z,14.07
2023-02-09T16:15:30.259Z,12.73
2023-02-09T16:18:33.160Z,13.50
2023-02-09T16:21:35.812Z,13.80
2023-02-09T16:24:40.731Z,15.60
2023-02-09T16:27:43.405Z,13.77
2023-02-09T16:30:53.091Z,13.43
2023-02-09T16:33:55.857Z,13.93
2023-02-09T16:36:58.543Z,14.97
2023-02-09T16:40:02.351Z,13.97
2023-02-09T16:43:05.984Z,14.73
2023-02-09T16:46:11.994Z,19.08
2023-02-09T16:49:29.136Z,17.63
2023-02-09T16:52:31.953Z,16.53
2023-02-09T16:55:36.514Z,14.70
2023-02-09T16:58:39.954Z,16.17
2023-02-09T17:01:43.977Z,15.88
2023-02-09T17:04:47.251Z,14.57
2023-02-09T17:07:54.814Z,16.30
2023-02-09T17:10:58.049Z,16.93
2023-02-09T17:14:00.856Z,15.13
2023-02-09T17:17:05.041Z,15.67
2023-02-09T17:20:08.016Z,13.60
2023-02-09T17:23:15.862Z,15.32
2023-02-09T17:26:18.997Z,13.30
2023-02-09T17:29:22.125Z,15.70
2023-02-09T17:32:26.314Z,15.65
2023-02-09T17:35:58.030Z,15.13
2023-02-09T17:38:52.612Z,13.43
2023-02-09T17:41:55.384Z,14.60
2023-02-09T17:44:58.276Z,14.33
2023-02-09T17:48:03.275Z,15.88
2023-02-09T17:51:07.146Z,16.27
2023-02-09T17:57:16.299Z,14.87
2023-02-09T18:00:19.733Z,19.25
2023-02-09T18:03:25.959Z,16.63
2023-02-09T18:06:34.537Z,15.73
2023-02-09T18:09:37.184Z,14.87
2023-02-09T18:12:40.064Z,16.87
2023-02-09T18:15:43.223Z,14.27
2023-02-09T18:18:47.814Z,13.70
2023-02-09T18:21:52.600Z,16.27
2023-02-09T18:25:00.085Z,16.30
2023-02-09T18:28:03.741Z,17.40
2023-02-09T18:31:07.264Z,14.05
2023-02-09T18:34:11.925Z,15.82
2023-02-09T18:37:15.862Z,18.00
2023-02-09T18:43:21.734Z,17.00
2023-02-09T18:46:26.998Z,16.70
2023-02-09T18:49:31.112Z,17.67
2023-02-09T18:52:34.653Z,16.87
2023-02-09T18:55:37.791Z,17.02
2023-02-09T18:58:40.688Z,19.13
2023-02-09T19:01:43.503Z,17.42
2023-02-09T19:04:48.177Z,19.27
2023-02-09T19:07:51.029Z,19.20
2023-02-09T19:10:53.864Z,17.00
2023-02-09T19:14:14.198Z,19.42
2023-02-09T19:17:18.217Z,19.17
2023-02-09T19:20:24.367Z,20.33
2023-02-09T19:23:27.006Z,19.03
2023-02-09T19:26:29.841Z,19.03
2023-02-09T19:29:32.429Z,18.80
2023-02-09T19:32:35.503Z,19.50
2023-02-09T19:35:39.529Z,21.83
2023-02-09T19:38:42.250Z,20.57
2023-02-09T19:41:46.989Z,20.13
2023-02-09T19:44:50.335Z,20.57
2023-02-09T19:47:53.118Z,20.08
2023-02-09T19:50:57.495Z,20.03
2023-02-09T19:54:00.123Z,18.90
2023-02-09T19:57:04.218Z,18.23
2023-02-09T20:00:07.428Z,18.10
2023-02-09T20:03:10.504Z,18.02
2023-02-09T20:06:15.027Z,16.52
2023-02-09T20:09:17.691Z,17.30
2023-02-09T20:12:22.154Z,16.60
2023-02-09T20:15:25.672Z,17.63
2023-02-09T20:18:28.641Z,16.80
2023-02-09T20:21:32.593Z,16.37
2023-02-09T20:27:37.846Z,15.43
2023-02-09T20:30:42.552Z,17.57
2023-02-09T20:33:45.151Z,17.47
2023-02-09T20:36:50.794Z,16.97
2023-02-09T20:39:53.504Z,17.20
2023-02-09T20:43:13.957Z,16.63
2023-02-09T20:46:37.944Z,17.65
2023-02-09T20:49:41.220Z,17.92
2023-02-09T20:52:46.093Z,14.63
2023-02-09T20:55:49.253Z,15.67
2023-02-09T20:58:51.962Z,17.42
2023-02-09T21:01:54.953Z,15.60
2023-02-09T21:04:58.100Z,15.10
2023-02-09T21:08:04.508Z,14.27
2023-02-09T21:11:07.154Z,14.63
2023-02-09T21:14:21.635Z,14.80
2023-02-09T21:17:30.342Z,16.37
2023-02-09T21:20:33.864Z,14.03
2023-02-09T21:23:38.024Z,15.02
2023-02-09T21:26:42.709Z,15.20
2023-02-09T21:29:45.353Z,15.20
2023-02-09T21:32:48.101Z,15.95
2023-02-09T21:35:51.056Z,16.45
2023-02-09T21:38:55.027Z,17.02
2023-02-09T21:45:18.434Z,16.30
2023-02-09T21:48:21.445Z,15.93
2023-02-09T21:51:24.243Z,16.50
2023-02-09T21:54:33.170Z,14.97
2023-02-09T21:57:36.341Z,17.17
2023-02-09T22:00:38.944Z,18.13
2023-02-09T22:03:42.530Z,18.43
2023-02-09T22:06:47.100Z,19.58
2023-02-09T22:09:51.251Z,19.42
2023-02-09T22:12:53.936Z,15.00
2023-02-09T22:15:56.952Z,15.52
2023-02-09T22:19:00.271Z,16.80
2023-02-09T22:22:02.853Z,15.45
2023-02-09T22:25:07.830Z,14.47
2023-02-09T22:28:10.618Z,16.05
2023-02-09T22:31:15.826Z,14.77
2023-02-09T22:34:18.467Z,16.77
2023-02-09T22:37:21.032Z,15.43
2023-02-09T22:40:25.066Z,16.17
2023-02-09T22:43:27.974Z,15.10
2023-02-09T22:46:33.058Z,15.27
2023-02-09T22:49:35.860Z,16.63
2023-02-09T22:52:38.580Z,15.00
2023-02-09T22:55:42.722Z,15.23
2023-02-09T22:58:45.501Z,16.48
2023-02-09T23:01:49.133Z,16.17
2023-02-09T23:04:51.959Z,16.73
2023-02-09T23:07:54.770Z,16.85
2023-02-09T23:11:03.482Z,16.85
2023-02-09T23:14:09.911Z,16.67
2023-02-09T23:17:13.156Z,18.33
2023-02-09T23:20:16.301Z,18.45
2023-02-09T23:23:19.098Z,17.92
2023-02-09T23:26:23.367Z,17.63
2023-02-09T23:29:26.155Z,18.23
2023-02-09T23:32:28.854Z,16.63
2023-02-09T23:35:31.678Z,17.20
2023-02-09T23:38:34.371Z,16.83
2023-02-09T23:41:39.875Z,17.92
2023-02-09T23:44:42.830Z,17.27
2023-02-09T23:47:45.561Z,17.33
2023-02-09T23:50:48.336Z,16.63
2023-02-09T23:53:51.509Z,15.38
2023-02-09T23:56:55.645Z,17.38
2023-02-09T23:59:58.342Z,16.73
